Terminal Aerodrome Forecast
Issued by NWS

Current Version | Previous Version | Graphics & Text | Print | Product List | Glossary On
Versions: 1 2 3 4 5 6 7 8 9 10 11 12 13 14 15 16 17 18
000
FTUS41 KILN 020500
TAFLCK
TAF
KLCK 020520Z 0206/0306 04004KT P6SM SCT040 BKN060
     FM021200 09005KT P6SM SCT040 BKN060
     FM021500 09006KT P6SM VCSH SCT040 OVC060
     FM030300 06008KT P6SM SCT040 BKN060=

USA.gov is the U.S. government's official web portal to all federal, state and local government web resources and services.